sensor_id;sensor_type;location;lat;lon;timestamp;pressure;altitude;pressure_sealevel;temperature;humidity
54556;BME280;57291;37.520;15.106;2023-03-11T00:00:12;100329.41;;;15.01;56.09
54556;BME280;57291;37.520;15.106;2023-03-11T00:02:42;100346.00;;;14.96;56.42
54556;BME280;57291;37.520;15.106;2023-03-11T00:05:11;100351.22;;;14.89;56.55
54556;BME280;57291;37.520;15.106;2023-03-11T00:07:39;100349.47;;;14.84;56.66
54556;BME280;57291;37.520;15.106;2023-03-11T00:10:06;100350.94;;;14.82;56.04
54556;BME280;57291;37.520;15.106;2023-03-11T00:12:33;100363.00;;;14.81;56.42
54556;BME280;57291;37.520;15.106;2023-03-11T00:15:00;100367.22;;;14.78;56.49
54556;BME280;57291;37.520;15.106;2023-03-11T00:17:27;100373.94;;;14.81;56.40
54556;BME280;57291;37.520;15.106;2023-03-11T00:19:54;100361.34;;;14.88;55.93
54556;BME280;57291;37.520;15.106;2023-03-11T00:22:21;100350.81;;;14.99;55.73
54556;BME280;57291;37.520;15.106;2023-03-11T00:24:49;100374.63;;;14.98;55.83
54556;BME280;57291;37.520;15.106;2023-03-11T00:27:16;100388.19;;;14.95;55.68
54556;BME280;57291;37.520;15.106;2023-03-11T00:29:43;100400.81;;;14.87;56.13
54556;BME280;57291;37.520;15.106;2023-03-11T00:32:10;100399.53;;;14.85;56.30
54556;BME280;57291;37.520;15.106;2023-03-11T00:34:37;100393.56;;;14.83;56.31
54556;BME280;57291;37.520;15.106;2023-03-11T00:37:04;100410.00;;;14.83;55.97
54556;BME280;57291;37.520;15.106;2023-03-11T00:39:31;100405.94;;;14.89;55.00
54556;BME280;57291;37.520;15.106;2023-03-11T00:41:59;100427.56;;;15.02;52.71
54556;BME280;57291;37.520;15.106;2023-03-11T00:44:26;100430.72;;;15.34;50.19
54556;BME280;57291;37.520;15.106;2023-03-11T00:46:53;100429.84;;;15.63;48.67
54556;BME280;57291;37.520;15.106;2023-03-11T00:49:20;100426.84;;;15.77;48.02
54556;BME280;57291;37.520;15.106;2023-03-11T00:51:47;100423.66;;;15.87;49.07
54556;BME280;57291;37.520;15.106;2023-03-11T00:54:14;100416.31;;;15.79;50.21
54556;BME280;57291;37.520;15.106;2023-03-11T00:56:41;100416.44;;;15.70;50.91
54556;BME280;57291;37.520;15.106;2023-03-11T00:59:09;100400.31;;;15.69;51.05
54556;BME280;57291;37.520;15.106;2023-03-11T01:01:36;100383.72;;;15.65;51.25
54556;BME280;57291;37.520;15.106;2023-03-11T01:04:03;100381.22;;;15.60;51.35
54556;BME280;57291;37.520;15.106;2023-03-11T01:06:30;100383.22;;;15.51;51.94
54556;BME280;57291;37.520;15.106;2023-03-11T01:09:10;100347.81;;;15.46;52.21
54556;BME280;57291;37.520;15.106;2023-03-11T01:11:37;100345.44;;;15.44;52.35
54556;BME280;57291;37.520;15.106;2023-03-11T01:14:06;100340.50;;;15.38;52.46
54556;BME280;57291;37.520;15.106;2023-03-11T01:16:33;100336.91;;;15.25;53.20
54556;BME280;57291;37.520;15.106;2023-03-11T01:19:00;100329.31;;;15.10;54.50
54556;BME280;57291;37.520;15.106;2023-03-11T01:21:27;100324.09;;;14.96;55.23
54556;BME280;57291;37.520;15.106;2023-03-11T01:23:54;100309.25;;;14.85;55.63
54556;BME280;57291;37.520;15.106;2023-03-11T01:26:21;100300.47;;;14.70;55.88
54556;BME280;57291;37.520;15.106;2023-03-11T01:28:48;100302.94;;;14.63;56.18
54556;BME280;57291;37.520;15.106;2023-03-11T01:31:15;100292.22;;;14.58;56.38
54556;BME280;57291;37.520;15.106;2023-03-11T01:33:43;100283.72;;;14.51;56.99
54556;BME280;57291;37.520;15.106;2023-03-11T01:36:10;100268.81;;;14.40;57.84
54556;BME280;57291;37.520;15.106;2023-03-11T01:38:37;100274.53;;;14.26;58.32
54556;BME280;57291;37.520;15.106;2023-03-11T01:41:04;100271.19;;;14.20;58.58
54556;BME280;57291;37.520;15.106;2023-03-11T01:47:26;100256.56;;;14.25;57.91
54556;BME280;57291;37.520;15.106;2023-03-11T01:49:16;100254.75;;;14.29;57.79
54556;BME280;57291;37.520;15.106;2023-03-11T01:51:44;100242.75;;;14.42;56.37
54556;BME280;57291;37.520;15.106;2023-03-11T01:54:17;100245.47;;;14.72;54.28
54556;BME280;57291;37.520;15.106;2023-03-11T01:56:44;100250.91;;;14.93;53.35
54556;BME280;57291;37.520;15.106;2023-03-11T01:59:14;100225.28;;;15.10;52.79
54556;BME280;57291;37.520;15.106;2023-03-11T02:01:43;100241.53;;;15.15;52.47
54556;BME280;57291;37.520;15.106;2023-03-11T02:04:12;100234.47;;;15.14;52.65
54556;BME280;57291;37.520;15.106;2023-03-11T02:06:39;100228.38;;;15.08;53.11
54556;BME280;57291;37.520;15.106;2023-03-11T02:09:06;100240.69;;;15.02;53.28
54556;BME280;57291;37.520;15.106;2023-03-11T02:11:34;100236.22;;;14.97;53.23
54556;BME280;57291;37.520;15.106;2023-03-11T02:14:02;100251.81;;;14.97;52.76
54556;BME280;57291;37.520;15.106;2023-03-11T02:16:30;100254.25;;;14.98;52.44
54556;BME280;57291;37.520;15.106;2023-03-11T02:18:58;100251.75;;;15.06;52.12
54556;BME280;57291;37.520;15.106;2023-03-11T02:21:30;100252.78;;;15.13;51.59
54556;BME280;57291;37.520;15.106;2023-03-11T02:29:03;100271.75;;;15.18;51.60
54556;BME280;57291;37.520;15.106;2023-03-11T02:31:32;100282.56;;;15.15;51.73
54556;BME280;57291;37.520;15.106;2023-03-11T02:34:02;100289.66;;;15.16;51.48
54556;BME280;57291;37.520;15.106;2023-03-11T02:38:57;100310.75;;;15.15;51.22
54556;BME280;57291;37.520;15.106;2023-03-11T02:41:24;100318.97;;;15.15;51.32
54556;BME280;57291;37.520;15.106;2023-03-11T02:43:52;100315.63;;;15.10;51.57
54556;BME280;57291;37.520;15.106;2023-03-11T02:46:21;100310.69;;;15.03;51.94
54556;BME280;57291;37.520;15.106;2023-03-11T02:48:48;100312.22;;;15.13;51.19
54556;BME280;57291;37.520;15.106;2023-03-11T02:51:16;100313.28;;;15.20;50.71
54556;BME280;57291;37.520;15.106;2023-03-11T02:53:44;100328.34;;;15.27;50.30
54556;BME280;57291;37.520;15.106;2023-03-11T02:56:13;100317.41;;;15.27;50.43
54556;BME280;57291;37.520;15.106;2023-03-11T02:58:41;100321.53;;;15.33;50.07
54556;BME280;57291;37.520;15.106;2023-03-11T03:01:09;100332.97;;;15.35;50.19
54556;BME280;57291;37.520;15.106;2023-03-11T03:03:37;100336.00;;;15.33;51.13
54556;BME280;57291;37.520;15.106;2023-03-11T03:06:05;100339.66;;;15.25;51.83
54556;BME280;57291;37.520;15.106;2023-03-11T03:08:32;100351.47;;;15.17;52.63
54556;BME280;57291;37.520;15.106;2023-03-11T03:10:59;100334.78;;;15.10;53.20
54556;BME280;57291;37.520;15.106;2023-03-11T03:13:26;100333.38;;;15.04;53.63
54556;BME280;57291;37.520;15.106;2023-03-11T03:15:55;100332.78;;;14.98;53.78
54556;BME280;57291;37.520;15.106;2023-03-11T03:18:22;100319.53;;;14.88;54.21
54556;BME280;57291;37.520;15.106;2023-03-11T03:20:51;100316.91;;;14.91;54.04
54556;BME280;57291;37.520;15.106;2023-03-11T03:23:18;100316.91;;;14.91;54.17
54556;BME280;57291;37.520;15.106;2023-03-11T03:25:46;100318.03;;;14.90;54.29
54556;BME280;57291;37.520;15.106;2023-03-11T03:28:13;100299.56;;;14.87;54.40
54556;BME280;57291;37.520;15.106;2023-03-11T03:30:43;100304.44;;;14.82;54.91
54556;BME280;57291;37.520;15.106;2023-03-11T03:33:12;100285.22;;;14.69;55.57
54556;BME280;57291;37.520;15.106;2023-03-11T03:35:41;100277.22;;;14.64;55.70
54556;BME280;57291;37.520;15.106;2023-03-11T03:38:14;100276.25;;;14.60;55.96
54556;BME280;57291;37.520;15.106;2023-03-11T03:40:45;100280.50;;;14.49;56.47
54556;BME280;57291;37.520;15.106;2023-03-11T03:43:16;100291.44;;;14.49;56.28
54556;BME280;57291;37.520;15.106;2023-03-11T03:45:44;100282.19;;;14.41;56.88
54556;BME280;57291;37.520;15.106;2023-03-11T03:48:11;100276.50;;;14.46;56.24
54556;BME280;57291;37.520;15.106;2023-03-11T03:50:42;100275.03;;;14.49;56.47
54556;BME280;57291;37.520;15.106;2023-03-11T03:53:13;100271.47;;;14.57;55.87
54556;BME280;57291;37.520;15.106;2023-03-11T03:55:41;100260.59;;;14.69;55.42
54556;BME280;57291;37.520;15.106;2023-03-11T03:58:09;100270.22;;;14.75;55.11
54556;BME280;57291;37.520;15.106;2023-03-11T04:00:36;100273.19;;;14.83;54.76
54556;BME280;57291;37.520;15.106;2023-03-11T04:03:05;100258.72;;;14.82;54.80
54556;BME280;57291;37.520;15.106;2023-03-11T04:05:40;100253.25;;;14.82;54.68
54556;BME280;57291;37.520;15.106;2023-03-11T04:08:07;100268.66;;;14.87;54.58
54556;BME280;57291;37.520;15.106;2023-03-11T04:10:34;100266.88;;;14.91;54.75
54556;BME280;57291;37.520;15.106;2023-03-11T04:13:02;100247.25;;;14.89;54.87
54556;BME280;57291;37.520;15.106;2023-03-11T04:15:29;100258.19;;;14.89;55.10
54556;BME280;57291;37.520;15.106;2023-03-11T04:17:57;100262.72;;;14.85;55.21
54556;BME280;57291;37.520;15.106;2023-03-11T04:20:25;100265.00;;;14.83;55.36
54556;BME280;57291;37.520;15.106;2023-03-11T04:22:52;100262.25;;;14.83;55.33
54556;BME280;57291;37.520;15.106;2023-03-11T04:25:22;100270.94;;;14.85;55.30
54556;BME280;57291;37.520;15.106;2023-03-11T04:27:49;100288.28;;;14.89;55.22
54556;BME280;57291;37.520;15.106;2023-03-11T04:30:18;100292.47;;;14.86;55.62
54556;BME280;57291;37.520;15.106;2023-03-11T04:32:48;100293.00;;;14.80;56.09
54556;BME280;57291;37.520;15.106;2023-03-11T04:35:15;100287.28;;;14.72;56.48
54556;BME280;57291;37.520;15.106;2023-03-11T04:37:43;100281.34;;;14.70;56.55
54556;BME280;57291;37.520;15.106;2023-03-11T04:40:11;100287.63;;;14.71;56.35
54556;BME280;57291;37.520;15.106;2023-03-11T04:42:39;100298.41;;;14.67;56.85
54556;BME280;57291;37.520;15.106;2023-03-11T04:45:06;100305.91;;;14.58;57.12
54556;BME280;57291;37.520;15.106;2023-03-11T04:47:34;100319.28;;;14.51;57.23
54556;BME280;57291;37.520;15.106;2023-03-11T04:50:04;100316.72;;;14.46;57.14
54556;BME280;57291;37.520;15.106;2023-03-11T04:52:31;100304.97;;;14.45;57.13
54556;BME280;57291;37.520;15.106;2023-03-11T04:54:58;100312.56;;;14.40;57.39
54556;BME280;57291;37.520;15.106;2023-03-11T04:57:25;100307.13;;;14.31;57.69
54556;BME280;57291;37.520;15.106;2023-03-11T04:59:54;100278.06;;;14.26;57.51
54556;BME280;57291;37.520;15.106;2023-03-11T05:02:21;100280.31;;;14.24;57.48
54556;BME280;57291;37.520;15.106;2023-03-11T05:04:53;100283.72;;;14.21;57.54
54556;BME280;57291;37.520;15.106;2023-03-11T05:07:21;100300.13;;;14.21;57.42
54556;BME280;57291;37.520;15.106;2023-03-11T05:09:49;100292.25;;;14.20;57.20
54556;BME280;57291;37.520;15.106;2023-03-11T05:12:16;100286.13;;;14.23;56.82
54556;BME280;57291;37.520;15.106;2023-03-11T05:14:47;100277.91;;;14.31;56.10
54556;BME280;57291;37.520;15.106;2023-03-11T05:17:15;100278.47;;;14.37;56.14
54556;BME280;57291;37.520;15.106;2023-03-11T05:19:46;100274.41;;;14.43;56.41
54556;BME280;57291;37.520;15.106;2023-03-11T05:22:21;100272.03;;;14.42;56.76
54556;BME280;57291;37.520;15.106;2023-03-11T05:24:48;100276.53;;;14.38;57.08
54556;BME280;57291;37.520;15.106;2023-03-11T05:27:15;100288.16;;;14.35;57.58
54556;BME280;57291;37.520;15.106;2023-03-11T05:29:46;100283.19;;;14.28;57.82
54556;BME280;57291;37.520;15.106;2023-03-11T05:32:15;100289.81;;;14.27;58.01
54556;BME280;57291;37.520;15.106;2023-03-11T05:34:44;100276.13;;;14.27;58.09
54556;BME280;57291;37.520;15.106;2023-03-11T05:37:13;100268.72;;;14.27;58.44
54556;BME280;57291;37.520;15.106;2023-03-11T05:39:42;100250.25;;;14.24;58.69
54556;BME280;57291;37.520;15.106;2023-03-11T05:42:10;100262.69;;;14.22;58.71
54556;BME280;57291;37.520;15.106;2023-03-11T05:44:38;100260.41;;;14.24;58.84
54556;BME280;57291;37.520;15.106;2023-03-11T05:47:05;100277.28;;;14.26;58.92
54556;BME280;57291;37.520;15.106;2023-03-11T05:49:35;100265.69;;;14.29;58.53
54556;BME280;57291;37.520;15.106;2023-03-11T05:52:03;100255.16;;;14.40;58.21
54556;BME280;57291;37.520;15.106;2023-03-11T05:54:31;100233.16;;;14.57;58.22
54556;BME280;57291;37.520;15.106;2023-03-11T05:56:58;100239.75;;;14.98;56.34
54556;BME280;57291;37.520;15.106;2023-03-11T05:59:25;100258.16;;;15.55;55.31
54556;BME280;57291;37.520;15.106;2023-03-11T06:01:58;100258.47;;;15.99;54.70
54556;BME280;57291;37.520;15.106;2023-03-11T06:04:25;100239.25;;;16.64;52.56
54556;BME280;57291;37.520;15.106;2023-03-11T06:06:52;100257.66;;;17.32;50.45
54556;BME280;57291;37.520;15.106;2023-03-11T06:09:22;100249.03;;;17.93;49.93
54556;BME280;57291;37.520;15.106;2023-03-11T06:11:51;100247.00;;;18.61;47.83
54556;BME280;57291;37.520;15.106;2023-03-11T06:14:21;100250.06;;;18.94;47.74
54556;BME280;57291;37.520;15.106;2023-03-11T06:16:50;100253.41;;;19.04;45.43
54556;BME280;57291;37.520;15.106;2023-03-11T06:19:19;100224.50;;;18.74;46.87
54556;BME280;57291;37.520;15.106;2023-03-11T06:21:57;100239.28;;;19.05;45.93
54556;BME280;57291;37.520;15.106;2023-03-11T06:24:24;100254.69;;;19.98;44.89
54556;BME280;57291;37.520;15.106;2023-03-11T06:26:51;100265.34;;;21.13;42.80
54556;BME280;57291;37.520;15.106;2023-03-11T06:29:21;100271.09;;;22.23;41.13
54556;BME280;57291;37.520;15.106;2023-03-11T06:31:50;100254.09;;;23.05;38.32
54556;BME280;57291;37.520;15.106;2023-03-11T06:34:17;100268.13;;;23.80;37.54
54556;BME280;57291;37.520;15.106;2023-03-11T06:36:44;100236.72;;;23.23;37.98
54556;BME280;57291;37.520;15.106;2023-03-11T06:39:13;100266.44;;;22.38;38.90
54556;BME280;57291;37.520;15.106;2023-03-11T06:41:43;100270.50;;;21.52;41.01
54556;BME280;57291;37.520;15.106;2023-03-11T06:44:11;100297.88;;;21.30;41.33
54556;BME280;57291;37.520;15.106;2023-03-11T06:46:40;100280.06;;;20.60;42.00
54556;BME280;57291;37.520;15.106;2023-03-11T06:49:07;100293.47;;;21.22;41.67
54556;BME280;57291;37.520;15.106;2023-03-11T06:51:36;100290.19;;;21.13;41.56
54556;BME280;57291;37.520;15.106;2023-03-11T06:54:03;100263.72;;;20.78;42.69
54556;BME280;57291;37.520;15.106;2023-03-11T06:56:31;100268.75;;;21.37;42.08
54556;BME280;57291;37.520;15.106;2023-03-11T06:59:03;100278.56;;;21.34;41.78
54556;BME280;57291;37.520;15.106;2023-03-11T07:01:32;100281.88;;;21.91;41.40
54556;BME280;57291;37.520;15.106;2023-03-11T07:04:01;100267.78;;;21.56;41.50
54556;BME280;57291;37.520;15.106;2023-03-11T07:06:29;100300.38;;;21.09;42.92
54556;BME280;57291;37.520;15.106;2023-03-11T07:09:10;100300.19;;;20.34;45.20
54556;BME280;57291;37.520;15.106;2023-03-11T07:11:41;100294.00;;;20.71;44.30
54556;BME280;57291;37.520;15.106;2023-03-11T07:14:12;100280.81;;;20.88;43.64
54556;BME280;57291;37.520;15.106;2023-03-11T07:16:43;100269.03;;;20.60;44.09
54556;BME280;57291;37.520;15.106;2023-03-11T07:19:21;100272.00;;;20.78;44.03
54556;BME280;57291;37.520;15.106;2023-03-11T07:21:48;100279.13;;;20.79;44.20
54556;BME280;57291;37.520;15.106;2023-03-11T07:24:15;100291.72;;;21.44;43.58
54556;BME280;57291;37.520;15.106;2023-03-11T07:26:43;100273.09;;;21.38;42.08
54556;BME280;57291;37.520;15.106;2023-03-11T07:29:10;100265.84;;;21.63;42.26
54556;BME280;57291;37.520;15.106;2023-03-11T07:31:37;100281.38;;;22.27;40.62
54556;BME280;57291;37.520;15.106;2023-03-11T07:34:05;100299.13;;;22.84;41.14
54556;BME280;57291;37.520;15.106;2023-03-11T07:36:38;100272.03;;;23.44;39.25
54556;BME280;57291;37.520;15.106;2023-03-11T07:39:05;100257.16;;;22.86;39.84
54556;BME280;57291;37.520;15.106;2023-03-11T07:41:33;100237.25;;;22.52;40.60
54556;BME280;57291;37.520;15.106;2023-03-11T07:44:00;100242.47;;;22.64;40.05
54556;BME280;57291;37.520;15.106;2023-03-11T07:46:28;100251.34;;;22.25;40.94
54556;BME280;57291;37.520;15.106;2023-03-11T07:48:55;100237.88;;;22.23;41.16
54556;BME280;57291;37.520;15.106;2023-03-11T07:51:23;100232.81;;;21.85;42.17
54556;BME280;57291;37.520;15.106;2023-03-11T07:53:51;100226.59;;;21.95;41.39
54556;BME280;57291;37.520;15.106;2023-03-11T07:56:19;100223.81;;;21.06;43.26
54556;BME280;57291;37.520;15.106;2023-03-11T07:58:46;100212.78;;;20.46;45.06
54556;BME280;57291;37.520;15.106;2023-03-11T08:01:14;100234.91;;;20.19;45.70
54556;BME280;57291;37.520;15.106;2023-03-11T08:03:46;100216.97;;;20.06;46.28
54556;BME280;57291;37.520;15.106;2023-03-11T08:06:17;100220.56;;;20.10;46.50
54556;BME280;57291;37.520;15.106;2023-03-11T08:08:45;100219.16;;;19.93;46.91
54556;BME280;57291;37.520;15.106;2023-03-11T08:11:12;100206.34;;;20.04;46.81
54556;BME280;57291;37.520;15.106;2023-03-11T08:13:40;100202.44;;;19.82;46.66
54556;BME280;57291;37.520;15.106;2023-03-11T08:16:07;100208.25;;;19.77;46.55
54556;BME280;57291;37.520;15.106;2023-03-11T08:18:35;100192.09;;;19.76;46.74
54556;BME280;57291;37.520;15.106;2023-03-11T08:21:05;100202.75;;;19.77;46.63
54556;BME280;57291;37.520;15.106;2023-03-11T08:23:32;100193.44;;;19.85;46.00
54556;BME280;57291;37.520;15.106;2023-03-11T08:26:06;100170.28;;;19.94;45.84
54556;BME280;57291;37.520;15.106;2023-03-11T08:28:34;100199.53;;;19.98;46.18
54556;BME280;57291;37.520;15.106;2023-03-11T08:31:01;100191.16;;;20.18;45.57
54556;BME280;57291;37.520;15.106;2023-03-11T08:33:29;100171.19;;;20.28;45.23
54556;BME280;57291;37.520;15.106;2023-03-11T08:35:56;100155.31;;;20.21;45.29
54556;BME280;57291;37.520;15.106;2023-03-11T08:38:23;100127.91;;;20.35;45.07
54556;BME280;57291;37.520;15.106;2023-03-11T08:40:50;100116.88;;;20.35;45.13
54556;BME280;57291;37.520;15.106;2023-03-11T08:43:17;100118.13;;;20.42;44.78
54556;BME280;57291;37.520;15.106;2023-03-11T08:45:44;100125.78;;;20.55;44.45
54556;BME280;57291;37.520;15.106;2023-03-11T08:48:11;100143.91;;;20.53;44.22
54556;BME280;57291;37.520;15.106;2023-03-11T08:50:39;100179.44;;;20.54;44.55
54556;BME280;57291;37.520;15.106;2023-03-11T08:53:20;100166.03;;;20.90;44.30
54556;BME280;57291;37.520;15.106;2023-03-11T08:55:48;100163.38;;;21.01;44.28
54556;BME280;57291;37.520;15.106;2023-03-11T08:58:15;100177.44;;;21.26;43.90
54556;BME280;57291;37.520;15.106;2023-03-11T09:00:42;100230.88;;;21.41;44.05
54556;BME280;57291;37.520;15.106;2023-03-11T09:03:09;100226.41;;;21.70;43.68
54556;BME280;57291;37.520;15.106;2023-03-11T09:05:36;100228.91;;;21.86;43.46
54556;BME280;57291;37.520;15.106;2023-03-11T09:08:03;100239.34;;;22.10;42.98
54556;BME280;57291;37.520;15.106;2023-03-11T09:10:32;100241.06;;;22.26;41.75
54556;BME280;57291;37.520;15.106;2023-03-11T09:12:59;100240.72;;;22.34;41.77
54556;BME280;57291;37.520;15.106;2023-03-11T09:15:25;100240.88;;;22.66;41.01
54556;BME280;57291;37.520;15.106;2023-03-11T09:17:52;100225.47;;;22.80;41.27
54556;BME280;57291;37.520;15.106;2023-03-11T09:20:20;100209.69;;;22.87;40.67
54556;BME280;57291;37.520;15.106;2023-03-11T09:22:47;100215.19;;;22.77;40.97
54556;BME280;57291;37.520;15.106;2023-03-11T09:25:14;100215.13;;;22.55;41.20
54556;BME280;57291;37.520;15.106;2023-03-11T09:27:41;100216.34;;;22.68;41.31
54556;BME280;57291;37.520;15.106;2023-03-11T09:30:09;100211.13;;;22.45;41.18
54556;BME280;57291;37.520;15.106;2023-03-11T09:32:36;100213.41;;;22.33;41.64
54556;BME280;57291;37.520;15.106;2023-03-11T09:35:03;100219.13;;;22.02;42.41
54556;BME280;57291;37.520;15.106;2023-03-11T09:39:20;100210.88;;;21.54;43.00
54556;BME280;57291;37.520;15.106;2023-03-11T09:42:02;100211.41;;;21.71;42.63
54556;BME280;57291;37.520;15.106;2023-03-11T09:57:53;100191.28;;;21.29;44.18
54556;BME280;57291;37.520;15.106;2023-03-11T10:00:22;100181.13;;;21.41;43.55
54556;BME280;57291;37.520;15.106;2023-03-11T10:02:51;100188.72;;;21.51;43.08
54556;BME280;57291;37.520;15.106;2023-03-11T10:05:25;100173.03;;;21.62;42.63
54556;BME280;57291;37.520;15.106;2023-03-11T10:08:06;100169.22;;;21.85;41.21
54556;BME280;57291;37.520;15.106;2023-03-11T10:10:44;100165.75;;;21.98;39.64
54556;BME280;57291;37.520;15.106;2023-03-11T10:13:26;100168.94;;;22.04;39.20
54556;BME280;57291;37.520;15.106;2023-03-11T10:16:15;100155.53;;;22.10;38.52
54556;BME280;57291;37.520;15.106;2023-03-11T10:18:53;100159.09;;;22.10;38.33
54556;BME280;57291;37.520;15.106;2023-03-11T10:23:58;100172.63;;;22.19;37.51
54556;BME280;57291;37.520;15.106;2023-03-11T10:26:42;100190.47;;;22.29;37.27
54556;BME280;57291;37.520;15.106;2023-03-11T10:34:36;100169.59;;;22.45;36.21
54556;BME280;57291;37.520;15.106;2023-03-11T10:37:28;100176.22;;;22.30;36.79
54556;BME280;57291;37.520;15.106;2023-03-11T10:40:30;100188.50;;;22.33;36.44
54556;BME280;57291;37.520;15.106;2023-03-11T10:43:02;100137.94;;;22.46;36.07
54556;BME280;57291;37.520;15.106;2023-03-11T10:45:37;100136.38;;;22.56;36.01
54556;BME280;57291;37.520;15.106;2023-03-11T10:48:12;100179.22;;;22.84;35.56
54556;BME280;57291;37.520;15.106;2023-03-11T10:51:11;100170.19;;;23.05;35.34
54556;BME280;57291;37.520;15.106;2023-03-11T10:54:01;100145.25;;;23.40;34.39
54556;BME280;57291;37.520;15.106;2023-03-11T10:59:05;100149.59;;;23.77;33.73
54556;BME280;57291;37.520;15.106;2023-03-11T11:01:32;100143.22;;;23.91;33.46
54556;BME280;57291;37.520;15.106;2023-03-11T11:04:00;100138.78;;;24.15;33.73
54556;BME280;57291;37.520;15.106;2023-03-11T11:06:35;100141.97;;;24.21;33.14
54556;BME280;57291;37.520;15.106;2023-03-11T11:09:20;100124.09;;;24.18;33.26
54556;BME280;57291;37.520;15.106;2023-03-11T11:12:14;100124.47;;;24.31;33.35
54556;BME280;57291;37.520;15.106;2023-03-11T11:14:50;100122.53;;;24.21;33.82
54556;BME280;57291;37.520;15.106;2023-03-11T11:17:29;100109.75;;;24.45;33.27
54556;BME280;57291;37.520;15.106;2023-03-11T11:19:57;100116.88;;;24.49;33.17
54556;BME280;57291;37.520;15.106;2023-03-11T11:22:25;100100.25;;;24.39;33.17
54556;BME280;57291;37.520;15.106;2023-03-11T11:24:55;100114.94;;;24.36;33.49
54556;BME280;57291;37.520;15.106;2023-03-11T11:27:26;100110.56;;;24.45;33.25
54556;BME280;57291;37.520;15.106;2023-03-11T11:32:37;100101.19;;;24.84;33.37
54556;BME280;57291;37.520;15.106;2023-03-11T11:35:13;100108.69;;;24.87;33.19
54556;BME280;57291;37.520;15.106;2023-03-11T11:37:44;100099.50;;;25.01;33.46
54556;BME280;57291;37.520;15.106;2023-03-11T11:42:49;100106.59;;;25.06;33.24
54556;BME280;57291;37.520;15.106;2023-03-11T11:48:05;100113.94;;;24.74;33.46
54556;BME280;57291;37.520;15.106;2023-03-11T11:50:37;100093.81;;;24.60;33.93
54556;BME280;57291;37.520;15.106;2023-03-11T11:53:18;100091.13;;;24.42;34.57
54556;BME280;57291;37.520;15.106;2023-03-11T11:55:48;100082.47;;;24.25;34.73
54556;BME280;57291;37.520;15.106;2023-03-11T11:58:19;100088.38;;;24.27;35.23
54556;BME280;57291;37.520;15.106;2023-03-11T12:04:15;100075.69;;;24.30;35.05
54556;BME280;57291;37.520;15.106;2023-03-11T12:06:47;100066.72;;;24.71;35.19
54556;BME280;57291;37.520;15.106;2023-03-11T12:12:17;100058.97;;;25.00;34.64
54556;BME280;57291;37.520;15.106;2023-03-11T12:15:15;100071.16;;;25.17;34.31
54556;BME280;57291;37.520;15.106;2023-03-11T12:17:48;100068.13;;;25.45;33.93
54556;BME280;57291;37.520;15.106;2023-03-11T12:20:52;100061.81;;;25.41;34.18
54556;BME280;57291;37.520;15.106;2023-03-11T12:26:19;100061.53;;;25.29;34.51
54556;BME280;57291;37.520;15.106;2023-03-11T12:29:19;100047.41;;;25.09;34.64
54556;BME280;57291;37.520;15.106;2023-03-11T12:31:50;100057.59;;;24.74;34.66
54556;BME280;57291;37.520;15.106;2023-03-11T12:34:21;100056.19;;;24.44;35.64
54556;BME280;57291;37.520;15.106;2023-03-11T12:36:51;100054.97;;;24.52;35.75
54556;BME280;57291;37.520;15.106;2023-03-11T12:39:30;100057.28;;;24.57;35.99
54556;BME280;57291;37.520;15.106;2023-03-11T12:42:24;100054.50;;;24.61;35.97
54556;BME280;57291;37.520;15.106;2023-03-11T12:50:57;100040.88;;;24.81;35.87
54556;BME280;57291;37.520;15.106;2023-03-11T13:01:52;100022.19;;;24.15;36.79
54556;BME280;57291;37.520;15.106;2023-03-11T13:07:00;100012.22;;;24.32;36.35
54556;BME280;57291;37.520;15.106;2023-03-11T13:09:31;99993.94;;;24.42;36.41
54556;BME280;57291;37.520;15.106;2023-03-11T13:11:58;99988.25;;;24.60;36.59
54556;BME280;57291;37.520;15.106;2023-03-11T13:14:30;99994.81;;;24.80;35.98
54556;BME280;57291;37.520;15.106;2023-03-11T13:17:24;99977.06;;;24.67;36.30
54556;BME280;57291;37.520;15.106;2023-03-11T13:19:53;99983.50;;;24.56;36.96
54556;BME280;57291;37.520;15.106;2023-03-11T13:25:27;99985.78;;;24.69;36.83
54556;BME280;57291;37.520;15.106;2023-03-11T13:33:55;99971.72;;;24.42;37.43
54556;BME280;57291;37.520;15.106;2023-03-11T13:42:16;99987.78;;;23.98;38.81
54556;BME280;57291;37.520;15.106;2023-03-11T13:44:46;99999.28;;;24.04;38.98
54556;BME280;57291;37.520;15.106;2023-03-11T13:47:15;99989.75;;;24.01;38.87
54556;BME280;57291;37.520;15.106;2023-03-11T13:49:59;99991.00;;;23.93;39.40
54556;BME280;57291;37.520;15.106;2023-03-11T13:52:34;99996.59;;;23.79;39.67
54556;BME280;57291;37.520;15.106;2023-03-11T13:55:12;100007.75;;;23.68;39.92
54556;BME280;57291;37.520;15.106;2023-03-11T13:57:51;100020.41;;;23.76;39.98
54556;BME280;57291;37.520;15.106;2023-03-11T14:00:24;100004.44;;;23.98;39.80
54556;BME280;57291;37.520;15.106;2023-03-11T14:02:56;100012.75;;;24.09;39.14
54556;BME280;57291;37.520;15.106;2023-03-11T14:05:28;100019.44;;;24.19;38.77
54556;BME280;57291;37.520;15.106;2023-03-11T14:10:59;100022.19;;;24.22;38.81
54556;BME280;57291;37.520;15.106;2023-03-11T14:13:32;100000.66;;;24.41;38.96
54556;BME280;57291;37.520;15.106;2023-03-11T14:18:43;99990.69;;;24.50;38.40
54556;BME280;57291;37.520;15.106;2023-03-11T14:21:18;100002.19;;;24.52;38.57
54556;BME280;57291;37.520;15.106;2023-03-11T14:23:48;100001.38;;;24.55;38.51
54556;BME280;57291;37.520;15.106;2023-03-11T14:26:21;99990.69;;;24.50;38.32